sensor_id;sensor_type;location;lat;lon;timestamp;pressure;altitude;pressure_sealevel;temperature;humidity
63819;BME280;49970;54.976;73.248;2022-10-17T00:01:04;100607.03;;;5.92;91.20
63819;BME280;49970;54.976;73.248;2022-10-17T00:03:30;100611.72;;;5.85;92.11
63819;BME280;49970;54.976;73.248;2022-10-17T00:05:57;100603.97;;;5.82;91.81
63819;BME280;49970;54.976;73.248;2022-10-17T00:08:23;100619.44;;;5.88;92.13
63819;BME280;49970;54.976;73.248;2022-10-17T00:10:57;100614.84;;;5.93;92.46
63819;BME280;49970;54.976;73.248;2022-10-17T00:13:25;100620.09;;;5.93;92.15
63819;BME280;49970;54.976;73.248;2022-10-17T00:15:51;100609.00;;;5.87;91.75
63819;BME280;49970;54.976;73.248;2022-10-17T00:18:18;100614.03;;;5.91;92.01
63819;BME280;49970;54.976;73.248;2022-10-17T00:20:44;100618.34;;;5.94;92.01
63819;BME280;49970;54.976;73.248;2022-10-17T00:23:10;100622.66;;;5.95;92.07
63819;BME280;49970;54.976;73.248;2022-10-17T00:25:37;100621.66;;;5.97;92.49
63819;BME280;49970;54.976;73.248;2022-10-17T00:28:03;100614.69;;;5.96;91.89
63819;BME280;49970;54.976;73.248;2022-10-17T00:30:29;100626.78;;;6.01;92.04
63819;BME280;49970;54.976;73.248;2022-10-17T00:33:07;100622.44;;;5.99;92.33
63819;BME280;49970;54.976;73.248;2022-10-17T00:35:33;100621.59;;;5.99;92.22
63819;BME280;49970;54.976;73.248;2022-10-17T00:38:00;100622.38;;;6.01;92.12
63819;BME280;49970;54.976;73.248;2022-10-17T00:40:26;100624.16;;;6.01;92.12
63819;BME280;49970;54.976;73.248;2022-10-17T00:42:52;100616.25;;;6.01;92.21
63819;BME280;49970;54.976;73.248;2022-10-17T00:45:26;100621.66;;;5.97;92.44
63819;BME280;49970;54.976;73.248;2022-10-17T00:47:57;100627.31;;;5.88;92.50
63819;BME280;49970;54.976;73.248;2022-10-17T00:50:26;100629.94;;;5.88;93.02
63819;BME280;49970;54.976;73.248;2022-10-17T00:53:05;100631.09;;;5.83;93.11
63819;BME280;49970;54.976;73.248;2022-10-17T00:55:37;100640.13;;;5.77;93.06
63819;BME280;49970;54.976;73.248;2022-10-17T00:58:05;100632.38;;;5.74;93.32
63819;BME280;49970;54.976;73.248;2022-10-17T01:00:31;100644.22;;;5.83;93.50
63819;BME280;49970;54.976;73.248;2022-10-17T01:02:58;100637.41;;;5.79;93.19
63819;BME280;49970;54.976;73.248;2022-10-17T01:05:24;100641.25;;;5.71;93.91
63819;BME280;49970;54.976;73.248;2022-10-17T01:07:52;100636.13;;;5.68;93.83
63819;BME280;49970;54.976;73.248;2022-10-17T01:10:19;100627.38;;;5.68;93.89
63819;BME280;49970;54.976;73.248;2022-10-17T01:13:07;100636.63;;;5.77;94.42
63819;BME280;49970;54.976;73.248;2022-10-17T01:15:56;100638.91;;;5.84;94.67
63819;BME280;49970;54.976;73.248;2022-10-17T01:21:56;100646.78;;;5.84;94.80
63819;BME280;49970;54.976;73.248;2022-10-17T01:30:02;100647.69;;;6.04;95.01
63819;BME280;49970;54.976;73.248;2022-10-17T01:32:54;100645.53;;;6.12;94.94
63819;BME280;49970;54.976;73.248;2022-10-17T01:35:57;100647.94;;;6.16;95.41
63819;BME280;49970;54.976;73.248;2022-10-17T01:38:42;100654.63;;;6.23;95.02
63819;BME280;49970;54.976;73.248;2022-10-17T01:41:32;100656.25;;;6.26;94.99
63819;BME280;49970;54.976;73.248;2022-10-17T01:44:41;100656.09;;;6.29;95.37
63819;BME280;49970;54.976;73.248;2022-10-17T01:47:14;100655.97;;;6.32;95.31
63819;BME280;49970;54.976;73.248;2022-10-17T01:49:44;100655.97;;;6.32;94.77
63819;BME280;49970;54.976;73.248;2022-10-17T01:52:18;100657.53;;;6.36;95.08
63819;BME280;49970;54.976;73.248;2022-10-17T01:54:52;100662.78;;;6.36;95.13
63819;BME280;49970;54.976;73.248;2022-10-17T01:57:29;100663.50;;;6.40;95.30
63819;BME280;49970;54.976;73.248;2022-10-17T01:59:57;100663.41;;;6.41;94.95
63819;BME280;49970;54.976;73.248;2022-10-17T02:02:24;100667.69;;;6.44;95.20
63819;BME280;49970;54.976;73.248;2022-10-17T02:04:52;100661.53;;;6.43;94.85
63819;BME280;49970;54.976;73.248;2022-10-17T02:07:30;100661.41;;;6.46;95.08
63819;BME280;49970;54.976;73.248;2022-10-17T02:09:58;100671.00;;;6.47;95.29
63819;BME280;49970;54.976;73.248;2022-10-17T02:12:41;100673.56;;;6.49;95.26
63819;BME280;49970;54.976;73.248;2022-10-17T02:20:55;100677.28;;;6.45;95.02
63819;BME280;49970;54.976;73.248;2022-10-17T02:23:30;100686.88;;;6.46;95.07
63819;BME280;49970;54.976;73.248;2022-10-17T02:26:10;100696.53;;;6.45;95.18
63819;BME280;49970;54.976;73.248;2022-10-17T02:31:46;100696.53;;;6.45;95.09
63819;BME280;49970;54.976;73.248;2022-10-17T02:34:20;100707.91;;;6.46;95.52
63819;BME280;49970;54.976;73.248;2022-10-17T02:36:56;100702.78;;;6.43;95.42
63819;BME280;49970;54.976;73.248;2022-10-17T02:39:25;100705.66;;;6.38;95.30
63819;BME280;49970;54.976;73.248;2022-10-17T02:41:57;100692.00;;;6.30;95.47
63819;BME280;49970;54.976;73.248;2022-10-17T02:44:25;100711.75;;;6.39;95.63
63819;BME280;49970;54.976;73.248;2022-10-17T02:47:02;100717.19;;;6.36;95.65
63819;BME280;49970;54.976;73.248;2022-10-17T02:49:34;100717.09;;;6.37;95.79
63819;BME280;49970;54.976;73.248;2022-10-17T02:54:40;100716.88;;;6.42;95.53
63819;BME280;49970;54.976;73.248;2022-10-17T02:57:28;100730.13;;;6.40;95.72
63819;BME280;49970;54.976;73.248;2022-10-17T02:59:58;100724.88;;;6.40;95.89
63819;BME280;49970;54.976;73.248;2022-10-17T03:02:26;100735.88;;;6.48;95.58
63819;BME280;49970;54.976;73.248;2022-10-17T03:04:52;100730.75;;;6.45;95.62
63819;BME280;49970;54.976;73.248;2022-10-17T03:07:19;100738.66;;;6.45;95.79
63819;BME280;49970;54.976;73.248;2022-10-17T03:09:45;100734.59;;;6.38;96.17
63819;BME280;49970;54.976;73.248;2022-10-17T03:12:16;100742.34;;;6.41;95.78
63819;BME280;49970;54.976;73.248;2022-10-17T03:14:42;100751.00;;;6.43;96.31
63819;BME280;49970;54.976;73.248;2022-10-17T03:17:09;100747.47;;;6.44;95.96
63819;BME280;49970;54.976;73.248;2022-10-17T03:19:35;100742.22;;;6.44;96.42
63819;BME280;49970;54.976;73.248;2022-10-17T03:22:01;100744.69;;;6.47;96.64
63819;BME280;49970;54.976;73.248;2022-10-17T03:24:29;100751.09;;;6.61;96.44
63819;BME280;49970;54.976;73.248;2022-10-17T03:26:55;100756.13;;;6.65;96.34
63819;BME280;49970;54.976;73.248;2022-10-17T03:29:22;100761.22;;;6.68;96.20
63819;BME280;49970;54.976;73.248;2022-10-17T03:31:58;100769.00;;;6.71;95.64
63819;BME280;49970;54.976;73.248;2022-10-17T03:34:24;100763.50;;;6.76;95.71
63819;BME280;49970;54.976;73.248;2022-10-17T03:36:51;100761.81;;;6.75;95.18
63819;BME280;49970;54.976;73.248;2022-10-17T03:39:18;100768.94;;;6.73;95.57
63819;BME280;49970;54.976;73.248;2022-10-17T03:41:44;100766.56;;;6.67;95.63
63819;BME280;49970;54.976;73.248;2022-10-17T03:44:11;100770.84;;;6.69;95.12
63819;BME280;49970;54.976;73.248;2022-10-17T03:46:37;100760.38;;;6.68;95.18
63819;BME280;49970;54.976;73.248;2022-10-17T03:49:05;100769.91;;;6.70;95.35
63819;BME280;49970;54.976;73.248;2022-10-17T03:51:32;100762.16;;;6.67;95.54
63819;BME280;49970;54.976;73.248;2022-10-17T03:54:08;100763.66;;;6.73;94.97
63819;BME280;49970;54.976;73.248;2022-10-17T03:56:34;100769.84;;;6.72;94.92
63819;BME280;49970;54.976;73.248;2022-10-17T03:59:03;100765.66;;;6.68;94.46
63819;BME280;49970;54.976;73.248;2022-10-17T04:01:33;100772.78;;;6.66;94.32
63819;BME280;49970;54.976;73.248;2022-10-17T04:04:01;100772.78;;;6.66;94.72
63819;BME280;49970;54.976;73.248;2022-10-17T04:06:41;100785.00;;;6.67;95.09
63819;BME280;49970;54.976;73.248;2022-10-17T04:09:09;100784.16;;;6.66;94.27
63819;BME280;49970;54.976;73.248;2022-10-17T04:11:58;100778.97;;;6.65;94.51
63819;BME280;49970;54.976;73.248;2022-10-17T04:14:24;100784.44;;;6.60;94.00
63819;BME280;49970;54.976;73.248;2022-10-17T04:16:50;100794.09;;;6.60;93.70
63819;BME280;49970;54.976;73.248;2022-10-17T04:19:20;100789.06;;;6.55;93.68
63819;BME280;49970;54.976;73.248;2022-10-17T04:21:46;100794.06;;;6.61;93.70
63819;BME280;49970;54.976;73.248;2022-10-17T04:24:14;100793.75;;;6.67;93.70
63819;BME280;49970;54.976;73.248;2022-10-17T04:27:03;100795.44;;;6.68;93.75
63819;BME280;49970;54.976;73.248;2022-10-17T04:29:32;100786.00;;;6.64;93.35
63819;BME280;49970;54.976;73.248;2022-10-17T04:32:10;100773.97;;;6.59;93.81
63819;BME280;49970;54.976;73.248;2022-10-17T04:34:43;100788.88;;;6.77;93.44
63819;BME280;49970;54.976;73.248;2022-10-17T04:37:13;100786.84;;;6.84;93.76
63819;BME280;49970;54.976;73.248;2022-10-17T04:39:39;100785.00;;;6.86;93.60
63819;BME280;49970;54.976;73.248;2022-10-17T04:42:05;100789.09;;;6.91;93.57
63819;BME280;49970;54.976;73.248;2022-10-17T04:44:31;100783.00;;;6.91;93.36
63819;BME280;49970;54.976;73.248;2022-10-17T04:46:58;100791.38;;;6.99;93.40
63819;BME280;49970;54.976;73.248;2022-10-17T04:49:25;100783.53;;;6.97;92.78
63819;BME280;49970;54.976;73.248;2022-10-17T04:51:56;100788.75;;;6.99;93.10
63819;BME280;49970;54.976;73.248;2022-10-17T04:54:37;100775.09;;;6.91;93.04
63819;BME280;49970;54.976;73.248;2022-10-17T04:57:09;100790.81;;;6.92;93.15
63819;BME280;49970;54.976;73.248;2022-10-17T04:59:35;100786.38;;;6.93;92.96
63819;BME280;49970;54.976;73.248;2022-10-17T05:02:26;100787.41;;;6.90;93.06
63819;BME280;49970;54.976;73.248;2022-10-17T05:04:52;100783.97;;;6.88;92.94
63819;BME280;49970;54.976;73.248;2022-10-17T05:07:19;100782.06;;;6.92;92.91
63819;BME280;49970;54.976;73.248;2022-10-17T05:09:52;100787.81;;;7.00;92.88
63819;BME280;49970;54.976;73.248;2022-10-17T05:12:20;100778.59;;;7.09;92.56
63819;BME280;49970;54.976;73.248;2022-10-17T05:14:47;100784.19;;;7.20;92.33
63819;BME280;49970;54.976;73.248;2022-10-17T05:17:14;100792.56;;;7.28;92.28
63819;BME280;49970;54.976;73.248;2022-10-17T05:19:40;100788.69;;;7.35;91.40
63819;BME280;49970;54.976;73.248;2022-10-17T05:22:07;100783.59;;;7.32;91.01
63819;BME280;49970;54.976;73.248;2022-10-17T05:24:33;100783.59;;;7.32;90.74
63819;BME280;49970;54.976;73.248;2022-10-17T05:26:59;100787.69;;;7.38;90.83
63819;BME280;49970;54.976;73.248;2022-10-17T05:29:36;100788.53;;;7.38;90.73
63819;BME280;49970;54.976;73.248;2022-10-17T05:32:09;100788.53;;;7.38;91.04
63819;BME280;49970;54.976;73.248;2022-10-17T05:34:36;100782.97;;;7.44;90.96
63819;BME280;49970;54.976;73.248;2022-10-17T05:37:02;100787.91;;;7.51;91.23
63819;BME280;49970;54.976;73.248;2022-10-17T05:39:30;100783.25;;;7.56;91.41
63819;BME280;49970;54.976;73.248;2022-10-17T05:41:57;100777.13;;;7.55;91.17
63819;BME280;49970;54.976;73.248;2022-10-17T05:44:24;100786.34;;;7.64;91.24
63819;BME280;49970;54.976;73.248;2022-10-17T05:46:54;100789.00;;;7.64;90.81
63819;BME280;49970;54.976;73.248;2022-10-17T05:49:21;100783.81;;;7.62;90.71
63819;BME280;49970;54.976;73.248;2022-10-17T05:51:48;100797.75;;;7.64;90.82
63819;BME280;49970;54.976;73.248;2022-10-17T05:54:18;100783.25;;;7.56;90.96
63819;BME280;49970;54.976;73.248;2022-10-17T05:56:44;100792.66;;;7.61;90.98
63819;BME280;49970;54.976;73.248;2022-10-17T05:59:11;100796.75;;;7.67;91.09
63819;BME280;49970;54.976;73.248;2022-10-17T06:01:50;100794.13;;;7.67;91.00
63819;BME280;49970;54.976;73.248;2022-10-17T06:04:16;100797.47;;;7.70;90.77
63819;BME280;49970;54.976;73.248;2022-10-17T06:06:43;100795.66;;;7.71;90.39
63819;BME280;49970;54.976;73.248;2022-10-17T06:09:09;100794.66;;;7.73;90.07
63819;BME280;49970;54.976;73.248;2022-10-17T06:11:38;100793.50;;;7.79;89.62
63819;BME280;49970;54.976;73.248;2022-10-17T06:14:10;100794.94;;;7.85;89.53
63819;BME280;49970;54.976;73.248;2022-10-17T06:16:38;100801.84;;;7.87;88.99
63819;BME280;49970;54.976;73.248;2022-10-17T06:19:05;100803.06;;;7.97;88.58
63819;BME280;49970;54.976;73.248;2022-10-17T06:21:31;100800.63;;;7.94;88.60
63819;BME280;49970;54.976;73.248;2022-10-17T06:24:07;100809.19;;;7.98;87.92
63819;BME280;49970;54.976;73.248;2022-10-17T06:26:35;100807.19;;;8.03;87.95
63819;BME280;49970;54.976;73.248;2022-10-17T06:29:13;100810.69;;;8.04;87.30
63819;BME280;49970;54.976;73.248;2022-10-17T06:31:44;100810.59;;;8.05;87.75
63819;BME280;49970;54.976;73.248;2022-10-17T06:34:11;100814.25;;;8.03;87.15
63819;BME280;49970;54.976;73.248;2022-10-17T06:36:39;100809.84;;;8.03;86.83
63819;BME280;49970;54.976;73.248;2022-10-17T06:39:05;100813.31;;;8.04;87.30
63819;BME280;49970;54.976;73.248;2022-10-17T06:41:55;100796.00;;;7.98;86.93
63819;BME280;49970;54.976;73.248;2022-10-17T06:44:38;100805.31;;;8.05;87.10
63819;BME280;49970;54.976;73.248;2022-10-17T06:47:17;100819.09;;;8.10;86.23
63819;BME280;49970;54.976;73.248;2022-10-17T06:49:44;100808.50;;;8.12;86.12
63819;BME280;49970;54.976;73.248;2022-10-17T06:52:42;100810.19;;;8.13;85.90
63819;BME280;49970;54.976;73.248;2022-10-17T06:55:27;100807.31;;;8.17;86.00
63819;BME280;49970;54.976;73.248;2022-10-17T06:58:16;100802.13;;;8.16;85.90
63819;BME280;49970;54.976;73.248;2022-10-17T07:01:06;100812.94;;;8.27;85.07
63819;BME280;49970;54.976;73.248;2022-10-17T07:03:35;100816.41;;;8.28;85.57
63819;BME280;49970;54.976;73.248;2022-10-17T07:06:01;100818.22;;;8.27;85.34
63819;BME280;49970;54.976;73.248;2022-10-17T07:08:28;100813.72;;;8.29;85.21
63819;BME280;49970;54.976;73.248;2022-10-17T07:10:55;100818.91;;;8.31;85.56
63819;BME280;49970;54.976;73.248;2022-10-17T07:13:21;100809.28;;;8.30;85.63
63819;BME280;49970;54.976;73.248;2022-10-17T07:15:48;100816.41;;;8.28;85.57
63819;BME280;49970;54.976;73.248;2022-10-17T07:18:17;100800.22;;;8.18;85.06
63819;BME280;49970;54.976;73.248;2022-10-17T07:20:52;100810.72;;;8.19;84.49
63819;BME280;49970;54.976;73.248;2022-10-17T07:23:18;100806.31;;;8.20;84.91
63819;BME280;49970;54.976;73.248;2022-10-17T07:25:45;100808.16;;;8.18;84.93
63819;BME280;49970;54.976;73.248;2022-10-17T07:28:12;100811.47;;;8.21;84.71
63819;BME280;49970;54.976;73.248;2022-10-17T07:30:39;100816.66;;;8.23;84.78
63819;BME280;49970;54.976;73.248;2022-10-17T07:33:09;100811.38;;;8.23;84.29
63819;BME280;49970;54.976;73.248;2022-10-17T07:35:37;100809.09;;;8.17;83.99
63819;BME280;49970;54.976;73.248;2022-10-17T07:38:07;100811.72;;;8.17;84.46
63819;BME280;49970;54.976;73.248;2022-10-17T07:40:34;100807.31;;;8.17;84.64
63819;BME280;49970;54.976;73.248;2022-10-17T07:43:00;100810.63;;;8.21;84.51
63819;BME280;49970;54.976;73.248;2022-10-17T07:45:27;100809.69;;;8.22;84.33
63819;BME280;49970;54.976;73.248;2022-10-17T07:47:57;100793.84;;;8.22;83.79
63819;BME280;49970;54.976;73.248;2022-10-17T07:50:24;100796.19;;;8.28;84.11
63819;BME280;49970;54.976;73.248;2022-10-17T07:52:50;100803.00;;;8.32;83.63
63819;BME280;49970;54.976;73.248;2022-10-17T07:55:26;100795.56;;;8.40;83.98
63819;BME280;49970;54.976;73.248;2022-10-17T07:57:52;100798.09;;;8.42;83.47
63819;BME280;49970;54.976;73.248;2022-10-17T08:00:18;100803.38;;;8.42;83.03
63819;BME280;49970;54.976;73.248;2022-10-17T08:02:45;100800.66;;;8.43;82.60
63819;BME280;49970;54.976;73.248;2022-10-17T08:05:11;100799.66;;;8.46;82.96
63819;BME280;49970;54.976;73.248;2022-10-17T08:07:37;100797.09;;;8.44;83.15
63819;BME280;49970;54.976;73.248;2022-10-17T08:10:04;100792.72;;;8.43;83.19
63819;BME280;49970;54.976;73.248;2022-10-17T08:12:30;100802.13;;;8.49;82.90
63819;BME280;49970;54.976;73.248;2022-10-17T08:15:00;100801.19;;;8.50;83.17
63819;BME280;49970;54.976;73.248;2022-10-17T08:17:26;100800.34;;;8.50;83.22
63819;BME280;49970;54.976;73.248;2022-10-17T08:19:52;100804.22;;;8.42;83.79
63819;BME280;49970;54.976;73.248;2022-10-17T08:22:19;100821.53;;;8.31;85.44
63819;BME280;49970;54.976;73.248;2022-10-17T08:24:45;100820.66;;;8.14;86.89
63819;BME280;49970;54.976;73.248;2022-10-17T08:27:11;100831.09;;;8.00;87.33
63819;BME280;49970;54.976;73.248;2022-10-17T08:29:39;100830.09;;;7.85;88.16
63819;BME280;49970;54.976;73.248;2022-10-17T08:32:06;100828.31;;;7.68;88.88
63819;BME280;49970;54.976;73.248;2022-10-17T08:34:34;100829.88;;;7.55;89.38
63819;BME280;49970;54.976;73.248;2022-10-17T08:37:00;100829.47;;;7.45;89.73
63819;BME280;49970;54.976;73.248;2022-10-17T08:39:26;100821.94;;;7.38;90.47
63819;BME280;49970;54.976;73.248;2022-10-17T08:41:59;100825.56;;;7.35;91.02
63819;BME280;49970;54.976;73.248;2022-10-17T08:47:38;100826.75;;;7.30;91.89
63819;BME280;49970;54.976;73.248;2022-10-17T08:50:10;100824.03;;;7.31;92.52
63819;BME280;49970;54.976;73.248;2022-10-17T08:52:46;100822.88;;;7.37;92.64
63819;BME280;49970;54.976;73.248;2022-10-17T08:55:16;100827.31;;;7.36;92.94
63819;BME280;49970;54.976;73.248;2022-10-17T08:57:43;100824.59;;;7.38;92.72
63819;BME280;49970;54.976;73.248;2022-10-17T09:00:18;100827.94;;;7.41;92.48
63819;BME280;49970;54.976;73.248;2022-10-17T09:05:49;100829.53;;;7.44;92.36
63819;BME280;49970;54.976;73.248;2022-10-17T09:08:45;100829.72;;;7.41;92.74
63819;BME280;49970;54.976;73.248;2022-10-17T09:11:27;100829.47;;;7.45;92.60
63819;BME280;49970;54.976;73.248;2022-10-17T09:14:22;100833.09;;;7.43;93.23
63819;BME280;49970;54.976;73.248;2022-10-17T09:19:28;100814.56;;;7.27;93.32
63819;BME280;49970;54.976;73.248;2022-10-17T09:22:00;100821.00;;;7.39;93.64
63819;BME280;49970;54.976;73.248;2022-10-17T09:27:31;100834.44;;;7.52;92.91
63819;BME280;49970;54.976;73.248;2022-10-17T09:35:38;100833.06;;;7.62;92.69
63819;BME280;49970;54.976;73.248;2022-10-17T09:38:14;100836.22;;;7.68;92.79
63819;BME280;49970;54.976;73.248;2022-10-17T09:40:41;100837.72;;;7.74;92.78
63819;BME280;49970;54.976;73.248;2022-10-17T09:43:10;100833.34;;;7.73;92.89
63819;BME280;49970;54.976;73.248;2022-10-17T09:45:45;100829.00;;;7.72;92.76
63819;BME280;49970;54.976;73.248;2022-10-17T09:48:31;100834.97;;;7.76;92.78
63819;BME280;49970;54.976;73.248;2022-10-17T09:51:01;100831.59;;;7.73;93.26
63819;BME280;49970;54.976;73.248;2022-10-17T09:53:36;100841.09;;;7.76;93.09
63819;BME280;49970;54.976;73.248;2022-10-17T09:56:07;100834.13;;;7.75;93.25
63819;BME280;49970;54.976;73.248;2022-10-17T09:58:42;100835.97;;;7.73;92.80
63819;BME280;49970;54.976;73.248;2022-10-17T10:01:20;100845.78;;;7.71;92.29
63819;BME280;49970;54.976;73.248;2022-10-17T10:04:15;100849.03;;;7.59;91.66
63819;BME280;49970;54.976;73.248;2022-10-17T10:07:04;100846.28;;;7.43;92.51
63819;BME280;49970;54.976;73.248;2022-10-17T10:09:33;100852.25;;;7.29;91.92
63819;BME280;49970;54.976;73.248;2022-10-17T10:12:05;100853.19;;;7.09;91.55
63819;BME280;49970;54.976;73.248;2022-10-17T10:14:36;100845.16;;;6.93;91.55
63819;BME280;49970;54.976;73.248;2022-10-17T10:17:37;100847.97;;;6.90;92.36
63819;BME280;49970;54.976;73.248;2022-10-17T10:20:26;100850.59;;;6.90;91.55
63819;BME280;49970;54.976;73.248;2022-10-17T10:23:12;100842.00;;;6.87;91.05
63819;BME280;49970;54.976;73.248;2022-10-17T10:25:58;100855.22;;;6.85;91.19
63819;BME280;49970;54.976;73.248;2022-10-17T10:28:34;100853.25;;;6.90;91.60
63819;BME280;49970;54.976;73.248;2022-10-17T10:31:06;100852.00;;;6.97;91.32
63819;BME280;49970;54.976;73.248;2022-10-17T10:33:42;100850.22;;;6.98;91.28
63819;BME280;49970;54.976;73.248;2022-10-17T10:36:08;100856.41;;;6.97;91.73
63819;BME280;49970;54.976;73.248;2022-10-17T10:38:38;100848.59;;;6.95;92.14
63819;BME280;49970;54.976;73.248;2022-10-17T10:41:08;100845.75;;;7.00;91.78
63819;BME280;49970;54.976;73.248;2022-10-17T10:43:39;100847.88;;;7.11;92.18
63819;BME280;49970;54.976;73.248;2022-10-17T10:46:21;100838.94;;;7.13;92.22
63819;BME280;49970;54.976;73.248;2022-10-17T10:49:00;100832.00;;;7.12;92.98
63819;BME280;49970;54.976;73.248;2022-10-17T10:54:12;100832.16;;;7.27;92.47
63819;BME280;49970;54.976;73.248;2022-10-17T10:56:56;100841.63;;;7.31;92.78
63819;BME280;49970;54.976;73.248;2022-10-17T10:59:32;100840.63;;;7.33;92.92
63819;BME280;49970;54.976;73.248;2022-10-17T11:02:35;100827.44;;;7.33;92.53
63819;BME280;49970;54.976;73.248;2022-10-17T11:10:36;100860.25;;;7.28;92.12
63819;BME280;49970;54.976;73.248;2022-10-17T11:13:05;100869.72;;;7.13;92.01
63819;BME280;49970;54.976;73.248;2022-10-17T11:21:20;100861.53;;;6.81;92.83
63819;BME280;49970;54.976;73.248;2022-10-17T11:24:39;100864.97;;;6.83;93.01
63819;BME280;49970;54.976;73.248;2022-10-17T11:27:05;100857.28;;;6.79;93.01
63819;BME280;49970;54.976;73.248;2022-10-17T11:29:38;100865.06;;;6.82;92.84
63819;BME280;49970;54.976;73.248;2022-10-17T11:32:36;100860.69;;;6.81;93.44
63819;BME280;49970;54.976;73.248;2022-10-17T11:38:04;100868.47;;;6.84;93.21
63819;BME280;49970;54.976;73.248;2022-10-17T11:40:45;100858.22;;;6.78;93.30
63819;BME280;49970;54.976;73.248;2022-10-17T11:43:26;100860.78;;;6.79;92.80
63819;BME280;49970;54.976;73.248;2022-10-17T11:46:23;100870.25;;;6.83;93.07
63819;BME280;49970;54.976;73.248;2022-10-17T11:49:09;100866.91;;;6.80;93.59
63819;BME280;49970;54.976;73.248;2022-10-17T11:51:44;100871.19;;;6.82;93.59
63819;BME280;49970;54.976;73.248;2022-10-17T11:54:21;100869.38;;;6.83;93.47
63819;BME280;49970;54.976;73.248;2022-10-17T12:05:22;100865.06;;;6.82;92.85
63819;BME280;49970;54.976;73.248;2022-10-17T12:08:12;100863.41;;;6.79;92.50
63819;BME280;49970;54.976;73.248;2022-10-17T12:10:59;100858.44;;;6.73;92.43
63819;BME280;49970;54.976;73.248;2022-10-17T12:15:56;100862.16;;;6.69;92.99
63819;BME280;49970;54.976;73.248;2022-10-17T12:18:33;100869.88;;;6.72;92.98
63819;BME280;49970;54.976;73.248;2022-10-17T12:21:00;100872.59;;;6.70;92.30
63819;BME280;49970;54.976;73.248;2022-10-17T12:23:28;100866.59;;;6.67;92.44
63819;BME280;49970;54.976;73.248;2022-10-17T12:26:00;100866.53;;;6.68;92.29
63819;BME280;49970;54.976;73.248;2022-10-17T12:28:45;100862.28;;;6.66;91.79
63819;BME280;49970;54.976;73.248;2022-10-17T12:33:52;100878.34;;;6.60;91.72
63819;BME280;49970;54.976;73.248;2022-10-17T12:38:51;100883.75;;;6.57;91.55
63819;BME280;49970;54.976;73.248;2022-10-17T12:46:41;100892.84;;;6.49;92.07
63819;BME280;49970;54.976;73.248;2022-10-17T12:49:39;100889.56;;;6.44;91.98
63819;BME280;49970;54.976;73.248;2022-10-17T12:57:40;100887.16;;;6.40;91.89
63819;BME280;49970;54.976;73.248;2022-10-17T13:00:34;100900.94;;;6.45;91.81
63819;BME280;49970;54.976;73.248;2022-10-17T13:05:42;100905.19;;;6.47;91.69
63819;BME280;49970;54.976;73.248;2022-10-17T13:08:32;100903.50;;;6.46;91.33
63819;BME280;49970;54.976;73.248;2022-10-17T13:11:11;100902.94;;;6.40;91.77
63819;BME280;49970;54.976;73.248;2022-10-17T13:13:47;100898.56;;;6.39;91.39
63819;BME280;49970;54.976;73.248;2022-10-17T13:16:32;100911.72;;;6.39;91.30
63819;BME280;49970;54.976;73.248;2022-10-17T13:19:01;100905.69;;;6.37;91.60
63819;BME280;49970;54.976;73.248;2022-10-17T13:21:28;100908.25;;;6.38;91.75
63819;BME280;49970;54.976;73.248;2022-10-17T13:23:55;100908.31;;;6.37;91.35
63819;BME280;49970;54.976;73.248;2022-10-17T13:26:23;100911.88;;;6.36;91.60
63819;BME280;49970;54.976;73.248;2022-10-17T13:29:10;100913.63;;;6.35;91.49
63819;BME280;49970;54.976;73.248;2022-10-17T13:31:43;100912.66;;;6.38;91.87
63819;BME280;49970;54.976;73.248;2022-10-17T13:34:23;100908.31;;;6.37;91.47
63819;BME280;49970;54.976;73.248;2022-10-17T13:36:59;100914.53;;;6.36;91.39
63819;BME280;49970;54.976;73.248;2022-10-17T13:39:37;100908.44;;;6.34;90.88
63819;BME280;49970;54.976;73.248;2022-10-17T13:42:06;100905.09;;;6.30;91.14
63819;BME280;49970;54.976;73.248;2022-10-17T13:44:40;100910.44;;;6.29;91.06
63819;BME280;49970;54.976;73.248;2022-10-17T13:47:22;100908.84;;;6.24;91.38
63819;BME280;49970;54.976;73.248;2022-10-17T13:49:49;100907.06;;;6.25;91.43
63819;BME280;49970;54.976;73.248;2022-10-17T13:52:28;100902.03;;;6.20;91.26
63819;BME280;49970;54.976;73.248;2022-10-17T13:59:21;100916.44;;;6.12;91.27
63819;BME280;49970;54.976;73.248;2022-10-17T14:03:14;100918.31;;;6.08;90.86
63819;BME280;49970;54.976;73.248;2022-10-17T14:08:44;100912.28;;;6.06;91.06
63819;BME280;49970;54.976;73.248;2022-10-17T14:11:38;100914.97;;;6.05;91.39
63819;BME280;49970;54.976;73.248;2022-10-17T14:14:21;100919.25;;;6.07;91.75
63819;BME280;49970;54.976;73.248;2022-10-17T14:16:53;100917.41;;;6.09;91.86
63819;BME280;49970;54.976;73.248;2022-10-17T14:19:28;100923.50;;;6.10;92.28
63819;BME280;49970;54.976;73.248;2022-10-17T14:22:34;100903.69;;;6.03;91.79
63819;BME280;49970;54.976;73.248;2022-10-17T14:25:25;100920.03;;;6.09;92.12
63819;BME280;49970;54.976;73.248;2022-10-17T14:28:00;100922.63;;;6.11;91.95
63819;BME280;49970;54.976;73.248;2022-10-17T14:30:33;100918.41;;;6.07;91.99
63819;BME280;49970;54.976;73.248;2022-10-17T14:33:06;100921.03;;;6.07;91.62
63819;BME280;49970;54.976;73.248;2022-10-17T14:35:36;100916.81;;;6.03;91.26
63819;BME280;49970;54.976;73.248;2022-10-17T14:38:06;100922.00;;;6.04;91.42
63819;BME280;49970;54.976;73.248;2022-10-17T14:40:49;100918.59;;;6.02;91.39
63819;BME280;49970;54.976;73.248;2022-10-17T14:43:24;100922.13;;;6.01;91.04
63819;BME280;49970;54.976;73.248;2022-10-17T14:45:57;100913.50;;;5.97;91.68
63819;BME280;49970;54.976;73.248;2022-10-17T14:48:27;100917.25;;;5.92;91.84
63819;BME280;49970;54.976;73.248;2022-10-17T14:51:16;100918.16;;;5.91;91.89
63819;BME280;49970;54.976;73.248;2022-10-17T14:54:16;100913.75;;;5.91;91.62